Time;durP1;ratioP1;P1;durP2;ratioP2;P2;SDS_P1;SDS_P2;PMS_P1;PMS_P2;Temp;Humidity;BMP_temperature;BMP_pressure;BME280_temperature;BME280_humidity;BME280_pressure;Samples;Min_cycle;Max_cycle;Signal;HPM_P1;HPM_P2
2022/09/30 00:01:50;;;;;;;;;21.50;20.00;;;;;13.43;62.91;100446.59;5057074;27;45462;-65
2022/09/30 00:04:22;;;;;;;;;21.75;17.00;;;;;13.34;62.64;100441.44;5086391;27;45327;-65
2022/09/30 00:06:48;;;;;;;;;20.75;18.75;;;;;13.40;63.12;100451.88;5058645;28;45491;-65
2022/09/30 00:09:20;;;;;;;;;19.75;16.75;;;;;13.39;62.41;100451.91;5060079;28;45586;-65
2022/09/30 00:11:47;;;;;;;;;21.50;18.75;;;;;13.38;62.33;100451.00;5056066;28;45450;-65
2022/09/30 00:14:20;;;;;;;;;20.50;18.25;;;;;13.40;62.36;100451.00;5074126;28;45322;-64
2022/09/30 00:16:47;;;;;;;;;19.75;18.50;;;;;13.32;62.19;100430.06;5072704;27;46850;-64
2022/09/30 00:19:13;;;;;;;;;12.25;11.25;;;;;13.38;62.03;100448.38;5075849;28;45723;-64
2022/09/30 00:21:40;;;;;;;;;26.50;20.50;;;;;13.33;62.32;100447.59;5073723;27;45877;-65
2022/09/30 00:24:06;;;;;;;;;19.50;18.00;;;;;13.29;62.62;100441.50;5055056;28;45513;-64
2022/09/30 00:26:33;;;;;;;;;18.50;17.50;;;;;13.24;63.14;100437.16;5080418;27;45537;-65
2022/09/30 00:29:00;;;;;;;;;19.50;18.25;;;;;13.24;62.96;100443.31;5082895;27;45388;-65
2022/09/30 00:31:29;;;;;;;;;21.25;18.50;;;;;13.19;62.95;100445.09;5055899;28;45402;-65
2022/09/30 00:34:07;;;;;;;;;23.50;18.50;;;;;13.21;62.60;100447.72;5073901;28;45567;-65
2022/09/30 00:36:47;;;;;;;;;18.25;16.00;;;;;13.19;62.44;100453.00;5073190;27;46617;-65
2022/09/30 00:39:18;;;;;;;;;19.00;15.75;;;;;13.19;63.02;100449.50;5073223;28;45367;-65
2022/09/30 00:41:45;;;;;;;;;18.25;15.50;;;;;13.18;63.12;100453.91;5064009;27;45407;-65
2022/09/30 00:44:45;;;;;;;;;24.50;22.00;;;;;13.17;62.86;100452.16;5084173;27;45491;-65
2022/09/30 00:47:54;;;;;;;;;17.50;15.75;;;;;13.14;62.69;100447.81;5043235;28;45500;-64
2022/09/30 00:50:26;;;;;;;;;21.50;17.75;;;;;13.11;63.05;100445.22;5074090;28;45563;-65
2022/09/30 00:53:11;;;;;;;;;19.50;16.75;;;;;13.14;62.89;100455.72;5075591;28;45748;-65
2022/09/30 00:56:01;;;;;;;;;22.00;17.00;;;;;13.13;63.20;100455.72;5061980;28;45493;-65
2022/09/30 00:58:33;;;;;;;;;20.00;14.25;;;;;13.12;63.06;100452.22;5074934;28;45481;-64
2022/09/30 01:01:01;;;;;;;;;19.25;17.00;;;;;13.13;63.29;100460.97;5056851;28;45430;-65
2022/09/30 01:03:40;;;;;;;;;20.75;17.00;;;;;13.11;62.88;100458.34;5072702;27;45725;-65
2022/09/30 01:06:06;;;;;;;;;19.25;15.50;;;;;13.12;63.16;100460.13;5075748;27;45480;-65
2022/09/30 01:08:36;;;;;;;;;18.25;16.75;;;;;13.10;62.48;100459.25;5075830;27;45421;-64
2022/09/30 01:11:02;;;;;;;;;18.25;16.50;;;;;13.02;62.79;100444.47;5073079;28;45618;-65
2022/09/30 01:13:30;;;;;;;;;21.25;17.50;;;;;13.07;63.24;100464.53;5025160;28;45434;-65
2022/09/30 01:16:22;;;;;;;;;19.50;16.50;;;;;13.06;63.08;100477.72;5075485;28;45401;-65
2022/09/30 01:19:25;;;;;;;;;20.00;17.00;;;;;13.04;63.63;100471.59;5054013;28;47629;-65
2022/09/30 01:22:24;;;;;;;;;16.75;16.00;;;;;13.01;62.87;100471.66;5056454;27;45590;-64
2022/09/30 01:25:14;;;;;;;;;21.50;19.00;;;;;12.97;63.05;100476.06;5073644;28;45908;-66
2022/09/30 01:28:04;;;;;;;;;16.50;13.75;;;;;12.98;62.96;100469.94;5073350;27;45440;-66
2022/09/30 01:31:08;;;;;;;;;17.25;15.25;;;;;12.96;63.02;100463.81;5076814;27;46151;-68
2022/09/30 01:33:52;;;;;;;;;15.00;15.00;;;;;12.93;63.52;100462.09;5076164;28;45457;-63
2022/09/30 01:36:30;;;;;;;;;18.50;18.25;;;;;12.91;62.79;100452.50;5067925;28;45481;-65
2022/09/30 01:39:04;;;;;;;;;19.25;16.50;;;;;12.98;63.07;100464.69;5072360;28;45347;-65
2022/09/30 01:41:48;;;;;;;;;19.75;15.75;;;;;12.94;62.92;100461.19;5079717;27;46153;-65
2022/09/30 01:44:39;;;;;;;;;16.00;16.00;;;;;12.89;63.02;100457.75;5080315;28;45344;-65
2022/09/30 01:47:24;;;;;;;;;20.50;16.00;;;;;12.89;63.78;100468.28;5067661;28;45505;-65
2022/09/30 01:50:09;;;;;;;;;17.50;14.75;;;;;12.87;63.23;100459.53;5080544;28;46624;-66
2022/09/30 01:52:54;;;;;;;;;18.25;17.25;;;;;12.91;62.81;100470.91;5076367;27;45443;-64
2022/09/30 01:55:36;;;;;;;;;20.50;14.50;;;;;12.89;62.92;100472.69;5076353;27;45354;-65
2022/09/30 01:58:16;;;;;;;;;15.50;13.00;;;;;12.85;63.74;100470.97;5081549;27;46052;-64
2022/09/30 02:00:48;;;;;;;;;14.25;13.25;;;;;12.88;63.30;100477.06;5080092;28;45555;-65
2022/09/30 02:03:27;;;;;;;;;13.00;11.75;;;;;12.83;62.85;100467.47;5075416;28;46347;-65
2022/09/30 02:06:16;;;;;;;;;17.50;14.00;;;;;12.90;63.08;100474.41;5075230;28;45908;-64
2022/09/30 02:09:08;;;;;;;;;14.75;13.00;;;;;12.86;63.61;100473.59;5076853;27;45423;-65
2022/09/30 02:11:36;;;;;;;;;15.75;15.00;;;;;12.83;63.45;100468.34;5061936;28;45366;-65
2022/09/30 02:14:25;;;;;;;;;18.75;15.25;;;;;12.84;63.03;100463.97;5077429;28;46145;-65
2022/09/30 02:17:07;;;;;;;;;14.50;14.25;;;;;12.82;63.34;100461.34;5075751;27;45390;-64
2022/09/30 02:19:39;;;;;;;;;19.25;15.25;;;;;12.84;63.13;100477.13;5063247;27;45646;-64
2022/09/30 02:22:27;;;;;;;;;18.75;17.25;;;;;12.82;63.24;100471.00;5087774;27;45386;-65
2022/09/30 02:25:02;;;;;;;;;17.25;16.50;;;;;12.76;63.14;100466.66;5056092;28;46682;-65
2022/09/30 02:27:41;;;;;;;;;16.25;15.25;;;;;12.71;63.17;100458.84;5078800;28;45409;-64
2022/09/30 02:30:08;;;;;;;;;17.00;15.25;;;;;12.67;63.61;100459.78;5070080;27;45499;-65
2022/09/30 02:33:00;;;;;;;;;20.75;15.00;;;;;12.68;63.27;100464.13;5079604;27;45358;-64
2022/09/30 02:35:34;;;;;;;;;14.00;13.25;;;;;12.69;63.38;100465.00;5080694;27;46364;-64
2022/09/30 02:38:17;;;;;;;;;18.25;16.25;;;;;12.68;63.62;100458.00;5075545;27;45459;-64
2022/09/30 02:40:52;;;;;;;;;14.00;14.00;;;;;12.41;63.73;100414.50;5074781;28;45677;-65
2022/09/30 02:43:19;;;;;;;;;12.50;12.25;;;;;12.56;63.74;100442.38;5043567;28;45616;-64
2022/09/30 02:46:00;;;;;;;;;16.75;14.00;;;;;12.56;63.90;100443.25;5061040;27;47656;-65
2022/09/30 02:48:53;;;;;;;;;12.50;12.50;;;;;12.65;63.33;100458.91;5077380;28;45644;-65
2022/09/30 02:51:29;;;;;;;;;18.50;15.50;;;;;12.62;63.85;100452.81;5066200;28;45500;-65
2022/09/30 02:54:18;;;;;;;;;16.75;16.75;;;;;12.61;64.01;100469.47;5077727;27;45349;-64
2022/09/30 02:56:57;;;;;;;;;15.25;14.50;;;;;12.60;64.28;100472.97;5036991;28;47801;-65
2022/09/30 02:59:25;;;;;;;;;14.25;14.25;;;;;12.56;64.06;100480.03;5065767;28;45428;-65
2022/09/30 03:01:51;;;;;;;;;16.75;15.00;;;;;12.55;64.06;100467.75;5076283;27;45475;-65
2022/09/30 03:04:29;;;;;;;;;17.50;14.00;;;;;12.47;64.23;100459.09;5042798;28;45596;-64
2022/09/30 03:06:55;;;;;;;;;6.00;5.00;;;;;12.53;64.64;100482.69;5074856;28;46195;-65
2022/09/30 03:09:25;;;;;;;;;14.75;14.75;;;;;12.54;64.24;100479.16;5076439;28;45840;-64
2022/09/30 03:11:59;;;;;;;;;16.00;15.75;;;;;12.55;64.49;100480.03;5075047;28;45815;-64
2022/09/30 03:14:31;;;;;;;;;16.75;15.25;;;;;12.57;64.56;100486.16;5074997;28;45469;-64
2022/09/30 03:17:24;;;;;;;;;20.50;17.00;;;;;12.55;64.62;100483.53;5075171;27;46205;-65
2022/09/30 03:20:17;;;;;;;;;18.25;16.00;;;;;12.49;64.60;100491.50;5078146;28;45481;-65
2022/09/30 03:23:20;;;;;;;;;13.25;12.25;;;;;12.54;64.49;100508.06;5076931;27;45602;-65
2022/09/30 03:26:04;;;;;;;;;16.75;14.00;;;;;12.54;64.81;100513.31;5074175;28;45393;-65
2022/09/30 03:28:37;;;;;;;;;21.50;16.00;;;;;12.53;64.52;100511.59;5078239;28;45377;-65
2022/09/30 03:31:21;;;;;;;;;17.00;14.00;;;;;12.55;64.33;100517.69;5076794;28;45724;-65
2022/09/30 03:34:14;;;;;;;;;18.75;14.25;;;;;12.55;64.42;100525.56;5079607;27;45453;-65
2022/09/30 03:36:39;;;;;;;;;12.75;12.75;;;;;12.57;64.69;100522.94;5055774;28;45430;-64
2022/09/30 03:39:25;;;;;;;;;13.75;13.75;;;;;12.57;64.88;100534.31;5060129;28;47626;-65
2022/09/30 03:41:53;;;;;;;;;19.00;13.50;;;;;12.59;64.80;100536.94;5076126;28;45512;-64
2022/09/30 03:44:27;;;;;;;;;18.25;14.25;;;;;12.49;64.45;100521.25;5073826;28;45515;-64
2022/09/30 03:47:07;;;;;;;;;15.50;14.00;;;;;12.59;64.37;100542.19;5074238;28;45451;-64
2022/09/30 03:49:41;;;;;;;;;14.00;13.25;;;;;12.56;64.55;100539.59;5073760;27;45971;-64
2022/09/30 03:52:10;;;;;;;;;15.75;13.25;;;;;12.61;64.60;100556.19;5066269;28;45474;-66
2022/09/30 03:55:01;;;;;;;;;18.00;15.00;;;;;12.42;64.12;100527.44;5049408;28;46020;-65
2022/09/30 03:57:28;;;;;;;;;13.50;13.50;;;;;12.62;64.00;100564.03;5077225;28;45517;-64
2022/09/30 03:59:58;;;;;;;;;16.00;14.00;;;;;12.59;64.51;100565.81;5080336;27;45531;-65
2022/09/30 04:02:26;;;;;;;;;18.75;15.25;;;;;12.62;64.57;100571.91;5076786;28;45389;-64
2022/09/30 04:04:51;;;;;;;;;20.50;18.00;;;;;12.56;64.04;100563.25;5078337;27;45371;-64
2022/09/30 04:07:18;;;;;;;;;15.75;13.50;;;;;12.57;64.31;100578.09;5064351;28;45403;-66
2022/09/30 04:09:43;;;;;;;;;24.50;16.00;;;;;12.62;64.13;100589.44;5059569;28;46804;-65
2022/09/30 04:12:09;;;;;;;;;13.00;13.00;;;;;12.62;64.50;100594.69;5077208;28;45369;-65
2022/09/30 04:14:35;;;;;;;;;13.00;13.00;;;;;12.61;64.16;100603.47;5081882;27;45625;-65
2022/09/30 04:17:02;;;;;;;;;18.25;13.50;;;;;12.59;64.31;100606.09;5078023;27;45556;-64
2022/09/30 04:19:28;;;;;;;;;13.50;13.25;;;;;12.56;64.40;100610.53;5075219;27;45749;-64
2022/09/30 04:21:54;;;;;;;;;15.75;14.25;;;;;12.50;63.97;100607.06;5055158;28;45572;-64
2022/09/30 04:24:21;;;;;;;;;12.75;12.00;;;;;12.47;64.63;100612.31;5073955;27;45929;-66
2022/09/30 04:26:47;;;;;;;;;12.75;11.00;;;;;12.34;64.88;100609.78;5073591;27;45497;-65
2022/09/30 04:29:14;;;;;;;;;14.00;14.00;;;;;12.39;64.87;100614.16;5071275;27;45687;-66
2022/09/30 04:31:39;;;;;;;;;12.25;12.25;;;;;12.47;64.32;100635.09;5073329;28;45441;-65
2022/09/30 04:34:05;;;;;;;;;14.25;13.00;;;;;12.31;64.98;100610.69;5073101;27;45442;-65
2022/09/30 04:36:30;;;;;;;;;16.25;14.00;;;;;12.32;65.04;100619.47;5071380;27;45568;-66
2022/09/30 04:38:56;;;;;;;;;13.00;11.25;;;;;12.35;64.31;100622.06;5046311;28;47071;-65
2022/09/30 04:41:22;;;;;;;;;12.25;12.25;;;;;12.38;64.88;100637.78;5082365;27;45674;-65
2022/09/30 04:43:48;;;;;;;;;16.25;14.25;;;;;12.36;64.55;100629.03;5076416;27;45561;-65
2022/09/30 04:46:19;;;;;;;;;14.25;11.75;;;;;12.32;64.18;100616.84;5073499;27;45656;-65
2022/09/30 04:48:46;;;;;;;;;14.50;14.00;;;;;12.34;64.32;100636.06;5073263;28;45421;-67
2022/09/30 04:51:16;;;;;;;;;12.75;12.75;;;;;12.36;64.50;100648.28;5059444;27;45867;-65
2022/09/30 04:53:42;;;;;;;;;14.00;12.25;;;;;12.36;64.58;100644.81;5054628;28;45701;-65
2022/09/30 04:56:08;;;;;;;;;11.50;11.50;;;;;12.38;64.10;100638.66;5072957;28;45377;-65
2022/09/30 04:58:34;;;;;;;;;13.00;13.00;;;;;12.42;64.12;100650.03;5072290;28;45516;-65
2022/09/30 05:01:11;;;;;;;;;10.25;10.25;;;;;12.42;63.83;100647.41;5072455;28;45409;-64
2022/09/30 05:03:37;;;;;;;;;11.75;11.25;;;;;12.44;63.68;100646.50;5073210;28;45713;-65
2022/09/30 05:06:04;;;;;;;;;9.25;9.00;;;;;12.44;63.56;100643.00;5082268;27;45476;-66
2022/09/30 05:08:32;;;;;;;;;12.50;11.25;;;;;12.43;63.61;100649.13;5073733;27;45842;-64
2022/09/30 05:11:04;;;;;;;;;12.00;10.50;;;;;12.43;63.34;100654.38;5077144;28;45559;-64
2022/09/30 05:13:33;;;;;;;;;12.25;12.25;;;;;12.42;63.95;100648.25;5080459;28;45303;-65
2022/09/30 05:15:58;;;;;;;;;14.50;11.50;;;;;12.43;63.82;100646.50;5087943;27;46786;-65
2022/09/30 05:18:25;;;;;;;;;10.50;10.50;;;;;12.40;63.79;100641.28;5079772;27;45669;-64
2022/09/30 05:20:56;;;;;;;;;10.00;10.00;;;;;12.49;63.74;100651.72;5084005;27;45967;-65
2022/09/30 05:23:22;;;;;;;;;14.25;11.75;;;;;12.39;63.98;100652.69;5080657;28;45455;-65
2022/09/30 05:25:49;;;;;;;;;16.00;10.25;;;;;12.40;64.30;100657.91;5078554;28;45462;-65
2022/09/30 05:28:16;;;;;;;;;11.75;11.75;;;;;12.25;64.19;100640.50;5066909;27;45481;-64
2022/09/30 05:30:42;;;;;;;;;16.00;13.50;;;;;12.35;64.07;100659.69;5072610;28;45449;-64
2022/09/30 05:33:09;;;;;;;;;13.50;13.25;;;;;12.28;64.11;100661.50;5092322;27;45675;-65
2022/09/30 05:35:34;;;;;;;;;18.25;14.75;;;;;11.92;64.38;100602.19;5080774;28;45434;-65
2022/09/30 05:38:04;;;;;;;;;11.00;10.75;;;;;12.25;64.40;100668.53;5078416;28;45989;-65
2022/09/30 05:40:31;;;;;;;;;14.25;12.00;;;;;12.22;64.07;100668.53;5076226;28;45719;-65
2022/09/30 05:42:59;;;;;;;;;16.00;13.00;;;;;12.17;64.36;100671.22;5078482;27;45333;-65
2022/09/30 05:45:26;;;;;;;;;11.50;10.25;;;;;12.16;64.22;100682.56;5061125;28;45756;-64
2022/09/30 05:47:52;;;;;;;;;11.00;10.25;;;;;12.10;64.31;100669.47;5075627;28;45411;-66
2022/09/30 05:50:19;;;;;;;;;11.50;9.00;;;;;12.01;64.29;100645.91;5057119;28;45429;-65
2022/09/30 05:52:46;;;;;;;;;10.25;7.00;;;;;12.16;64.16;100672.06;5076658;28;45524;-66
2022/09/30 05:55:12;;;;;;;;;13.75;12.50;;;;;12.13;64.83;100681.72;5080545;28;45231;-66
2022/09/30 05:57:39;;;;;;;;;13.00;13.00;;;;;12.10;64.70;100685.22;5080325;27;45660;-65
2022/09/30 06:00:05;;;;;;;;;15.50;12.00;;;;;12.15;64.43;100679.94;5065304;28;45708;-66
2022/09/30 06:02:32;;;;;;;;;8.75;8.75;;;;;12.13;63.85;100681.72;5075803;28;45410;-66
2022/09/30 06:04:58;;;;;;;;;14.00;11.00;;;;;12.22;64.16;100700.94;5057442;28;45561;-65
2022/09/30 06:07:23;;;;;;;;;13.00;12.50;;;;;12.26;64.05;100693.88;5078924;27;45815;-67
2022/09/30 06:09:49;;;;;;;;;12.25;10.50;;;;;12.28;64.10;100705.25;5075535;28;45487;-65
2022/09/30 06:12:18;;;;;;;;;11.50;10.00;;;;;12.17;64.00;100691.31;5054060;28;45481;-65
2022/09/30 06:14:43;;;;;;;;;11.50;9.50;;;;;12.16;63.66;100690.44;5049753;28;45354;-65
2022/09/30 06:17:09;;;;;;;;;14.00;10.75;;;;;12.36;63.49;100705.22;5068543;28;47506;-66
2022/09/30 06:19:35;;;;;;;;;13.50;10.75;;;;;12.26;63.96;100694.75;5075126;28;45910;-66
2022/09/30 06:22:00;;;;;;;;;15.00;11.25;;;;;12.26;63.87;100697.38;5055559;28;45363;-65
2022/09/30 06:24:26;;;;;;;;;11.25;11.25;;;;;12.30;63.88;100707.00;5076037;27;45525;-66
2022/09/30 06:26:53;;;;;;;;;14.00;13.50;;;;;12.49;63.66;100725.28;5075985;27;45949;-66
2022/09/30 06:29:18;;;;;;;;;11.75;11.50;;;;;12.63;63.27;100730.47;5075025;28;45354;-66
2022/09/30 06:31:44;;;;;;;;;14.25;11.00;;;;;12.61;62.97;100719.09;5074786;28;45725;-66
2022/09/30 06:34:11;;;;;;;;;13.50;11.00;;;;;12.73;62.83;100734.75;5075027;27;45365;-66
2022/09/30 06:36:36;;;;;;;;;14.00;12.50;;;;;12.60;62.99;100698.94;5056551;28;48155;-67
2022/09/30 06:39:03;;;;;;;;;12.50;12.50;;;;;12.90;62.13;100732.88;5074774;27;45493;-66
2022/09/30 06:41:29;;;;;;;;;16.00;13.50;;;;;13.02;63.08;100744.19;5060187;28;45464;-65
2022/09/30 06:43:56;;;;;;;;;10.25;10.25;;;;;13.11;61.49;100736.22;5057158;27;45693;-65
2022/09/30 06:46:24;;;;;;;;;17.75;13.50;;;;;13.16;61.93;100744.94;5056429;28;48044;-65
2022/09/30 06:48:53;;;;;;;;;15.75;13.00;;;;;13.18;60.96;100740.53;5076002;28;45517;-66
2022/09/30 06:51:19;;;;;;;;;16.00;15.25;;;;;13.21;61.81;100748.41;5058395;28;45618;-64
2022/09/30 06:53:45;;;;;;;;;16.00;14.75;;;;;13.30;61.77;100748.34;5057734;28;45463;-65
2022/09/30 06:56:11;;;;;;;;;17.25;16.50;;;;;13.28;61.11;100744.88;5064351;28;46281;-65
2022/09/30 06:58:38;;;;;;;;;13.00;12.25;;;;;13.30;61.32;100743.09;5074637;27;45928;-64
2022/09/30 07:01:05;;;;;;;;;14.75;12.75;;;;;13.42;61.45;100742.09;5058988;28;45390;-65
2022/09/30 07:03:34;;;;;;;;;16.25;13.00;;;;;13.58;60.50;100741.06;5074512;28;45615;-65
2022/09/30 07:06:03;;;;;;;;;11.50;10.50;;;;;13.74;60.10;100748.81;5076720;28;45588;-66
2022/09/30 07:08:31;;;;;;;;;18.25;13.50;;;;;13.79;59.74;100741.75;5060637;28;45481;-65
2022/09/30 07:10:58;;;;;;;;;17.50;14.00;;;;;13.88;59.99;100746.00;5056865;28;45248;-65
2022/09/30 07:13:24;;;;;;;;;15.75;13.50;;;;;13.96;59.45;100741.53;5077230;27;45445;-65
2022/09/30 07:15:53;;;;;;;;;15.50;13.50;;;;;14.08;59.53;100740.53;5056125;28;48094;-65
2022/09/30 07:18:20;;;;;;;;;17.50;16.00;;;;;14.12;58.70;100734.34;5052727;28;45773;-66
2022/09/30 07:20:54;;;;;;;;;15.00;14.25;;;;;14.13;59.08;100734.31;5068992;28;45428;-65
2022/09/30 07:23:20;;;;;;;;;20.00;17.75;;;;;14.24;57.82;100730.66;5075997;27;45433;-64
2022/09/30 07:25:57;;;;;;;;;19.00;17.75;;;;;14.25;58.51;100743.81;5077708;28;45393;-64
2022/09/30 07:28:27;;;;;;;;;20.00;18.00;;;;;14.14;58.80;100740.44;5060008;28;45646;-66
2022/09/30 07:30:55;;;;;;;;;21.00;17.00;;;;;14.12;59.13;100747.50;5076082;27;45291;-65
2022/09/30 07:33:22;;;;;;;;;18.75;17.00;;;;;14.17;58.58;100741.28;5073260;27;45520;-66
2022/09/30 07:35:59;;;;;;;;;19.25;16.25;;;;;14.10;58.70;100728.22;5078932;27;45572;-65
2022/09/30 07:38:28;;;;;;;;;17.25;14.25;;;;;14.20;58.73;100743.00;5061700;27;45489;-64
2022/09/30 07:41:06;;;;;;;;;18.00;17.00;;;;;14.27;58.18;100749.06;5073976;28;45373;-63
2022/09/30 07:43:37;;;;;;;;;21.75;16.00;;;;;14.32;59.47;100737.56;5073714;28;45326;-64
2022/09/30 07:46:24;;;;;;;;;12.75;12.50;;;;;14.58;58.03;100752.19;5072862;28;45406;-66
2022/09/30 07:48:56;;;;;;;;;14.75;14.75;;;;;14.76;57.93;100757.19;5079070;27;45719;-66
2022/09/30 07:51:34;;;;;;;;;14.25;12.00;;;;;14.87;56.90;100757.03;5073210;27;45453;-65
2022/09/30 07:54:08;;;;;;;;;19.50;16.50;;;;;14.91;57.42;100757.84;5054977;28;45703;-64
2022/09/30 07:56:37;;;;;;;;;15.25;12.25;;;;;15.00;56.99;100760.34;5060544;28;46524;-64
2022/09/30 07:59:04;;;;;;;;;14.25;12.75;;;;;15.02;56.47;100751.53;5079303;27;45441;-64
2022/09/30 08:01:31;;;;;;;;;13.50;13.50;;;;;15.13;56.58;100766.28;5055689;28;45856;-64
2022/09/30 08:03:59;;;;;;;;;17.25;14.00;;;;;15.22;55.62;100758.22;5077350;27;45461;-66
2022/09/30 08:06:27;;;;;;;;;19.75;16.75;;;;;15.26;55.63;100752.88;5059261;28;47965;-66
2022/09/30 08:08:54;;;;;;;;;18.25;15.00;;;;;15.31;55.74;100757.22;5060293;27;45855;-66
2022/09/30 08:11:21;;;;;;;;;18.00;18.00;;;;;15.20;56.14;100723.94;5073359;28;45518;-66
2022/09/30 08:13:54;;;;;;;;;16.75;15.75;;;;;15.47;55.63;100759.56;5055216;28;45491;-66
2022/09/30 08:16:21;;;;;;;;;21.25;19.00;;;;;15.55;55.21;100755.91;5076236;28;45569;-65
2022/09/30 08:18:47;;;;;;;;;19.00;19.00;;;;;15.61;55.10;100767.22;5072986;28;45571;-65
2022/09/30 08:21:13;;;;;;;;;19.75;17.50;;;;;15.62;54.76;100750.47;5073710;28;45356;-65
2022/09/30 08:23:39;;;;;;;;;21.50;21.50;;;;;15.58;53.71;100738.22;5090981;27;45380;-67
2022/09/30 08:26:10;;;;;;;;;17.25;17.25;;;;;15.59;54.59;100763.75;5078677;27;46220;-66
2022/09/30 08:28:37;;;;;;;;;20.75;20.00;;;;;15.62;55.26;100763.69;5081350;27;45483;-68
2022/09/30 08:31:11;;;;;;;;;22.50;20.25;;;;;15.63;55.09;100749.56;5076237;28;45460;-65
2022/09/30 08:33:37;;;;;;;;;25.75;17.75;;;;;15.77;54.67;100759.03;5073308;28;45474;-65
2022/09/30 08:36:11;;;;;;;;;28.00;22.00;;;;;15.92;54.35;100763.16;5073283;27;45516;-66
2022/09/30 08:38:37;;;;;;;;;26.25;22.50;;;;;15.98;54.32;100765.69;5065892;27;45591;-67
2022/09/30 08:41:34;;;;;;;;;26.75;25.50;;;;;15.93;53.86;100764.91;5077124;27;45527;-66
2022/09/30 08:44:18;;;;;;;;;24.50;20.50;;;;;15.95;54.60;100768.41;5074304;28;45390;-68
2022/09/30 08:47:05;;;;;;;;;24.50;19.25;;;;;15.96;54.76;100770.97;5072715;27;46411;-67
2022/09/30 08:50:00;;;;;;;;;32.25;26.25;;;;;16.01;54.17;100773.53;5073058;27;45525;-66
2022/09/30 08:52:34;;;;;;;;;27.25;24.50;;;;;16.09;53.74;100761.94;5075547;28;45359;-67
2022/09/30 08:55:02;;;;;;;;;27.25;23.00;;;;;16.07;53.31;100758.44;5061385;28;45604;-67
2022/09/30 08:57:36;;;;;;;;;19.00;17.75;;;;;16.19;53.97;100759.09;5073007;27;45863;-66
2022/09/30 09:00:07;;;;;;;;;17.00;16.00;;;;;16.33;54.25;100751.75;5076995;28;45386;-66
2022/09/30 09:02:48;;;;;;;;;17.67;15.67;;;;;16.50;53.76;100744.31;5058707;27;45606;-65
2022/09/30 09:05:27;;;;;;;;;17.00;14.00;;;;;16.70;52.84;100756.19;5055134;28;45579;-67
2022/09/30 09:08:11;;;;;;;;;19.33;17.33;;;;;16.82;52.15;100760.38;5054459;28;45584;-65
2022/09/30 09:10:47;;;;;;;;;21.67;15.33;;;;;16.91;52.92;100766.31;5072452;27;45580;-64
2022/09/30 09:13:32;;;;;;;;;21.50;19.75;;;;;16.97;51.64;100769.75;5053747;28;45512;-65
2022/09/30 09:16:28;;;;;;;;;24.25;20.50;;;;;16.84;51.25;100759.44;5045069;28;45560;-66
2022/09/30 09:19:17;;;;;;;;;21.33;20.67;;;;;16.89;51.59;100752.25;5055757;27;47037;-66
2022/09/30 09:22:00;;;;;;;;;19.33;17.67;;;;;17.12;50.47;100764.94;5056269;28;45325;-66
2022/09/30 09:24:42;;;;;;;;;16.33;14.33;;;;;17.24;50.22;100769.03;5073934;28;45547;-65
2022/09/30 09:27:29;;;;;;;;;14.33;14.33;;;;;17.43;51.46;100777.41;5073956;27;45872;-67
2022/09/30 09:30:08;;;;;;;;;11.33;11.33;;;;;17.66;51.36;100776.81;5075922;27;45713;-66
2022/09/30 09:32:35;;;;;;;;;14.67;11.33;;;;;17.83;50.08;100778.16;5071068;27;46240;-65
2022/09/30 09:35:14;;;;;;;;;14.67;10.33;;;;;17.92;49.50;100762.00;5055697;28;45812;-65
2022/09/30 09:38:24;;;;;;;;;12.00;11.00;;;;;18.11;49.18;100778.28;5071698;28;45349;-65
2022/09/30 09:41:11;;;;;;;;;18.00;17.67;;;;;18.09;47.42;100766.84;5065730;28;46741;-65
2022/09/30 09:43:49;;;;;;;;;16.33;15.67;;;;;18.15;46.11;100787.84;5068503;28;46028;-66
2022/09/30 09:46:33;;;;;;;;;18.67;15.67;;;;;17.99;46.79;100787.44;5069128;28;45804;-66
2022/09/30 09:49:19;;;;;;;;;23.00;18.33;;;;;17.75;46.31;100784.50;5068315;28;45367;-66
2022/09/30 09:51:54;;;;;;;;;13.67;12.00;;;;;17.77;46.73;100785.34;5049720;28;45823;-66
2022/09/30 09:54:23;;;;;;;;;15.33;13.00;;;;;17.98;46.23;100790.97;5068941;27;45585;-65
2022/09/30 09:56:51;;;;;;;;;17.67;17.00;;;;;18.00;46.39;100790.00;5071746;28;45760;-66
2022/09/30 09:59:18;;;;;;;;;13.33;11.00;;;;;18.17;46.45;100776.28;5074905;27;45462;-66
2022/09/30 10:01:49;;;;;;;;;10.67;10.67;;;;;18.33;46.42;100774.06;5079199;27;46095;-67
2022/09/30 10:04:25;;;;;;;;;8.33;7.67;;;;;18.54;46.08;100780.50;5077713;27;46145;-66
2022/09/30 10:07:01;;;;;;;;;11.00;11.00;;;;;18.65;45.15;100783.72;5075201;27;45528;-65
2022/09/30 10:09:35;;;;;;;;;10.50;8.50;;;;;18.92;45.18;100770.53;5060895;28;45646;-66
2022/09/30 10:12:04;;;;;;;;;12.33;10.67;;;;;19.28;43.49;100789.69;5060593;28;45511;-65
2022/09/30 10:14:31;;;;;;;;;9.00;9.00;;;;;19.49;43.52;100758.88;5078885;28;45428;-65
2022/09/30 10:17:03;;;;;;;;;8.00;7.00;;;;;19.98;42.74;100782.00;5075349;27;45602;-65
2022/09/30 10:19:33;;;;;;;;;8.00;7.33;;;;;20.10;41.21;100768.28;5076247;27;45425;-69
2022/09/30 10:22:08;;;;;;;;;10.00;9.33;;;;;20.38;41.65;100791.16;5075691;27;46247;-65
2022/09/30 10:24:37;;;;;;;;;11.33;10.33;;;;;20.54;41.29;100787.00;5077978;27;45770;-66
2022/09/30 10:27:03;;;;;;;;;12.67;11.33;;;;;20.77;40.89;100778.16;5074831;28;45571;-64
2022/09/30 10:29:34;;;;;;;;;16.67;13.67;;;;;20.87;40.46;100773.31;5075544;28;45476;-66
2022/09/30 10:32:06;;;;;;;;;14.00;12.67;;;;;21.09;40.90;100768.84;5074863;28;45742;-65
2022/09/30 10:34:39;;;;;;;;;9.33;8.00;;;;;22.39;39.26;100772.13;5081228;27;45639;-65
2022/09/30 10:37:13;;;;;;;;;12.67;11.67;;;;;24.72;35.35;100778.06;5060145;28;45541;-65
2022/09/30 10:39:41;;;;;;;;;9.00;8.00;;;;;26.32;32.27;100757.88;5074513;28;45451;-64
2022/09/30 10:42:16;;;;;;;;;9.33;9.33;;;;;28.09;30.62;100765.75;5083761;27;45571;-64
2022/09/30 10:44:53;;;;;;;;;9.33;9.33;;;;;29.77;28.44;100757.75;5074244;28;45394;-63
2022/09/30 10:47:22;;;;;;;;;8.33;8.33;;;;;30.99;26.38;100756.97;5077423;28;45552;-65
2022/09/30 10:50:12;;;;;;;;;16.00;14.00;;;;;31.76;25.27;100757.72;5079315;28;45472;-64
2022/09/30 10:52:48;;;;;;;;;17.67;15.67;;;;;31.48;23.78;100760.94;5079077;27;46946;-64
2022/09/30 10:55:30;;;;;;;;;15.67;15.00;;;;;31.19;24.93;100763.41;5079385;28;45235;-64
2022/09/30 10:58:17;;;;;;;;;11.75;11.75;;;;;30.99;25.34;100751.56;5079372;28;45298;-63
2022/09/30 11:00:44;;;;;;;;;11.25;10.50;;;;;31.77;23.48;100740.47;5056501;28;45517;-65
2022/09/30 11:03:19;;;;;;;;;15.25;14.50;;;;;32.49;23.41;100750.38;5074583;28;45919;-66
2022/09/30 11:05:48;;;;;;;;;11.50;10.00;;;;;32.57;22.60;100738.84;5078607;27;45677;-64
2022/09/30 11:08:22;;;;;;;;;6.00;6.00;;;;;33.67;22.51;100744.00;5077294;28;45466;-64
2022/09/30 11:10:53;;;;;;;;;7.00;6.25;;;;;34.48;20.45;100737.97;5079155;27;45576;-64
2022/09/30 11:13:46;;;;;;;;;8.00;8.00;;;;;34.19;19.75;100745.31;5078553;28;46129;-64
2022/09/30 11:16:50;;;;;;;;;5.40;5.40;;;;;34.47;21.34;100745.28;5077421;28;45411;-64
2022/09/30 11:19:54;;;;;;;;;10.00;6.40;;;;;34.39;20.86;100750.66;5061950;27;45586;-64
2022/09/30 11:22:35;;;;;;;;;6.25;6.25;;;;;32.50;22.30;100752.09;5020747;27;45399;-64
2022/09/30 11:25:01;;;;;;;;;7.75;7.75;;;;;31.85;21.95;100749.66;5082271;27;45350;-65
2022/09/30 11:27:49;;;;;;;;;7.25;6.50;;;;;31.45;23.35;100763.06;5074632;28;45378;-65
2022/09/30 11:30:23;;;;;;;;;5.60;5.60;;;;;33.61;20.50;100748.19;5074214;28;45291;-63
2022/09/30 11:33:01;;;;;;;;;6.50;6.50;;;;;33.79;20.53;100749.16;5057001;28;45653;-66
2022/09/30 11:35:55;;;;;;;;;4.20;4.20;;;;;33.49;20.73;100747.47;5074311;27;45845;-63
2022/09/30 11:39:04;;;;;;;;;5.60;4.20;;;;;34.31;20.29;100743.22;5073974;28;45946;-63
2022/09/30 11:41:36;;;;;;;;;2.80;2.80;;;;;35.25;18.79;100742.06;5069378;28;45807;-64
2022/09/30 11:44:21;;;;;;;;;3.00;3.00;;;;;33.08;20.56;100748.63;5078686;28;45493;-64